Troy, Idaho
Current Conditions -  °F | °C
As of 8:53 PM on Wednesday 22 Oct 2014 (Local Time) from KPUW Reporting Station
Light Rain Light Rain  
Wind Chill: 53°   Ceiling: 7000
Heat Index: 53°   Visibility: 9mi
Dew Point: 44°   Wind: 3mph
Humidity: 71%   Direction: 120°ESE
Pressure: 29.84"   Gusts: NA
Location:  46.74°N, 116.77°W
Report Text: KPUW 230353Z AUTO 12003KT 9SM -RA OVC070 12/07 A2984 RMK AO2 SLP108 P0000 T01170067
Loading
Personal Weather Stations






























Interactive Weather Map
Tropical Storm Tracking
New forecast layout! Learn more

10-Day Weather Forecast

Advertisements
Track Severe Weather on mobile